createdAt,value
2023-01-30T00:00:12.315Z,97817.63
2023-01-30T00:02:38.971Z,97814.28
2023-01-30T00:05:05.644Z,97807.13
2023-01-30T00:07:32.314Z,97804.56
2023-01-30T00:09:58.939Z,97803.81
2023-01-30T00:12:25.593Z,97799.28
2023-01-30T00:14:52.227Z,97794.41
2023-01-30T00:17:18.808Z,97793.06
2023-01-30T00:19:45.423Z,97787.78
2023-01-30T00:22:12.040Z,97786.69
2023-01-30T00:24:38.755Z,97793.09
2023-01-30T00:27:05.593Z,97788.84
2023-01-30T00:29:32.249Z,97781.13
2023-01-30T00:31:58.888Z,97781.53
2023-01-30T00:34:25.545Z,97782.84
2023-01-30T00:37:07.127Z,97773.97
2023-01-30T00:39:34.584Z,97775.03
2023-01-30T00:42:01.226Z,97770.91
2023-01-30T00:44:27.857Z,97774.28
2023-01-30T00:46:54.452Z,97768.16
2023-01-30T00:49:21.061Z,97768.72
2023-01-30T00:51:48.083Z,97765.94
2023-01-30T00:54:14.709Z,97765.94
2023-01-30T00:56:41.336Z,97765.78
2023-01-30T00:59:07.979Z,97770.75
2023-01-30T01:01:34.694Z,97772.19
2023-01-30T01:04:01.424Z,97765.38
2023-01-30T01:06:28.012Z,97766.66
2023-01-30T01:08:54.606Z,97751.31
2023-01-30T01:11:21.220Z,97755.06
2023-01-30T01:13:47.953Z,97748.00
2023-01-30T01:16:14.591Z,97756.19
2023-01-30T01:18:41.237Z,97763.91
2023-01-30T01:21:07.888Z,97745.91
2023-01-30T01:23:34.518Z,97754.25
2023-01-30T01:26:01.136Z,97753.09
2023-01-30T01:28:27.786Z,97745.78
2023-01-30T01:30:54.424Z,97748.03
2023-01-30T01:33:21.053Z,97744.75
2023-01-30T01:35:47.743Z,97741.13
2023-01-30T01:38:14.376Z,97742.16
2023-01-30T01:40:41.009Z,97743.34
2023-01-30T01:43:07.643Z,97742.41
2023-01-30T01:45:34.376Z,97737.47
2023-01-30T01:48:01.019Z,97737.34
2023-01-30T01:50:27.601Z,97731.69
2023-01-30T01:52:54.195Z,97732.66
2023-01-30T01:55:20.910Z,97730.31
2023-01-30T01:57:47.543Z,97724.19
2023-01-30T02:00:14.149Z,97729.47
2023-01-30T02:02:40.772Z,97718.31
2023-01-30T02:05:07.408Z,97719.94
2023-01-30T02:07:34.058Z,97715.69
2023-01-30T02:10:00.636Z,97721.25
2023-01-30T02:12:27.247Z,97716.53
2023-01-30T02:14:55.993Z,97705.09
2023-01-30T02:17:22.657Z,97713.00
2023-01-30T02:19:49.276Z,97716.19
2023-01-30T02:22:16.734Z,97709.84
2023-01-30T02:24:43.338Z,97703.81
2023-01-30T02:27:09.903Z,97707.59
2023-01-30T02:29:36.565Z,97699.50
2023-01-30T02:32:03.249Z,97687.63
2023-01-30T02:34:29.835Z,97691.50
2023-01-30T02:36:56.612Z,97691.66
2023-01-30T02:39:23.216Z,97683.53
2023-01-30T02:41:49.887Z,97682.34
2023-01-30T02:44:16.471Z,97679.28
2023-01-30T02:46:43.066Z,97677.50
2023-01-30T02:49:09.661Z,97681.16
2023-01-30T02:51:36.303Z,97678.22
2023-01-30T02:54:02.892Z,97675.63
2023-01-30T02:56:29.511Z,97687.16
2023-01-30T02:58:56.125Z,97678.34
2023-01-30T03:01:22.863Z,97677.41
2023-01-30T03:03:49.551Z,97677.53
2023-01-30T03:06:16.273Z,97668.94
2023-01-30T03:08:42.911Z,97671.06
2023-01-30T03:11:09.478Z,97675.16
2023-01-30T03:13:36.302Z,97672.97
2023-01-30T03:16:02.997Z,97674.69
2023-01-30T03:18:29.689Z,97676.13
2023-01-30T03:20:56.534Z,97677.66
2023-01-30T03:23:23.178Z,97670.72
2023-01-30T03:25:49.788Z,97660.13
2023-01-30T03:28:16.387Z,97656.47
2023-01-30T03:30:43.044Z,97662.13
2023-01-30T03:33:09.654Z,97661.53
2023-01-30T03:35:36.273Z,97652.84
2023-01-30T03:38:02.885Z,97656.38
2023-01-30T03:40:29.532Z,97659.88
2023-01-30T03:42:56.200Z,97658.94
2023-01-30T03:45:22.832Z,97654.31
2023-01-30T03:47:49.467Z,97653.75
2023-01-30T03:50:16.119Z,97656.22
2023-01-30T03:52:42.722Z,97644.84
2023-01-30T03:55:09.384Z,97643.41
2023-01-30T03:57:36.396Z,97641.16
2023-01-30T04:00:03.072Z,97633.06
2023-01-30T04:02:29.793Z,97625.81
2023-01-30T04:04:56.463Z,97618.28
2023-01-30T04:07:23.118Z,97626.97
2023-01-30T04:09:49.724Z,97626.72
2023-01-30T04:12:16.383Z,97624.59
2023-01-30T04:14:42.991Z,97625.53
2023-01-30T04:17:09.618Z,97623.66
2023-01-30T04:19:36.252Z,97625.19
2023-01-30T04:22:02.897Z,97608.38
2023-01-30T04:24:29.583Z,97611.31
2023-01-30T04:26:56.240Z,97603.44
2023-01-30T04:29:22.821Z,97598.41
2023-01-30T04:31:49.534Z,97607.19
2023-01-30T04:34:16.227Z,97596.16
2023-01-30T04:36:42.851Z,97594.25
2023-01-30T04:39:09.462Z,97594.34
2023-01-30T04:41:36.044Z,97590.59
2023-01-30T04:44:02.634Z,97591.44
2023-01-30T04:46:29.269Z,97584.75
2023-01-30T04:48:55.870Z,97589.94
2023-01-30T04:51:22.493Z,97578.34
2023-01-30T04:53:49.097Z,97575.69
2023-01-30T04:56:15.727Z,97583.56
2023-01-30T04:58:42.363Z,97578.97
2023-01-30T05:01:09.065Z,97578.16
2023-01-30T05:03:35.682Z,97578.41
2023-01-30T05:06:02.332Z,97578.53
2023-01-30T05:08:28.982Z,97562.78
2023-01-30T05:10:55.632Z,97568.91
2023-01-30T05:13:22.294Z,97553.28
2023-01-30T05:15:48.939Z,97560.78
2023-01-30T05:18:15.583Z,97562.09
2023-01-30T05:20:42.249Z,97561.84
2023-01-30T05:23:08.840Z,97549.88
2023-01-30T05:25:35.474Z,97553.13
2023-01-30T05:28:02.088Z,97549.03
2023-01-30T05:30:28.880Z,97539.75
2023-01-30T05:32:55.501Z,97538.81
2023-01-30T05:35:22.105Z,97539.06
2023-01-30T05:37:48.694Z,97530.94
2023-01-30T05:40:15.307Z,97543.50
2023-01-30T05:42:42.046Z,97545.97
2023-01-30T05:45:08.676Z,97545.38
2023-01-30T05:47:35.294Z,97539.84
2023-01-30T05:50:01.941Z,97528.47
2023-01-30T05:52:28.600Z,97528.59
2023-01-30T05:54:55.234Z,97517.78
2023-01-30T05:57:21.843Z,97528.94
2023-01-30T05:59:48.425Z,97523.41
2023-01-30T06:02:15.064Z,97522.94
2023-01-30T06:04:41.713Z,97526.13
2023-01-30T06:07:08.777Z,97517.69
2023-01-30T06:09:35.372Z,97531.63
2023-01-30T06:12:01.953Z,97530.84
2023-01-30T06:14:28.545Z,97517.78
2023-01-30T06:16:55.259Z,97530.94
2023-01-30T06:19:21.920Z,97515.44
2023-01-30T06:21:48.534Z,97504.63
2023-01-30T06:24:15.149Z,97496.91
2023-01-30T06:26:41.784Z,97502.28
2023-01-30T06:29:08.432Z,97514.16
2023-01-30T06:31:35.099Z,97527.91
2023-01-30T06:34:01.723Z,97526.38
2023-01-30T06:36:28.321Z,97520.75
2023-01-30T06:38:54.982Z,97520.59
2023-01-30T06:41:21.566Z,97527.66
2023-01-30T06:43:48.082Z,97522.13
2023-01-30T06:46:14.924Z,97520.47
2023-01-30T06:48:41.628Z,97526.69
2023-01-30T06:51:08.335Z,97522.13
2023-01-30T06:53:34.957Z,97510.50
2023-01-30T06:56:01.613Z,97521.19
2023-01-30T06:58:28.251Z,97505.22
2023-01-30T07:00:54.841Z,97511.78
2023-01-30T07:03:21.490Z,97509.94
2023-01-30T07:05:48.075Z,97511.41
2023-01-30T07:08:14.729Z,97536.59
2023-01-30T07:10:41.395Z,97523.06
2023-01-30T07:13:08.035Z,97514.69
2023-01-30T07:15:34.669Z,97523.25
2023-01-30T07:18:01.308Z,97498.69
2023-01-30T07:20:27.961Z,97494.81
2023-01-30T07:22:54.595Z,97498.25
2023-01-30T07:25:21.295Z,97491.19
2023-01-30T07:27:47.887Z,97487.09
2023-01-30T07:30:14.543Z,97500.25
2023-01-30T07:32:41.326Z,97497.00
2023-01-30T07:35:07.928Z,97479.97
2023-01-30T07:37:34.582Z,97481.66
2023-01-30T07:40:01.262Z,97475.56
2023-01-30T07:42:27.859Z,97472.41
2023-01-30T07:44:54.484Z,97457.34
2023-01-30T07:47:21.167Z,97468.31
2023-01-30T07:49:47.769Z,97465.38
2023-01-30T07:52:14.419Z,97466.38
2023-01-30T07:54:41.246Z,97457.41
2023-01-30T07:57:07.895Z,97448.31
2023-01-30T07:59:34.499Z,97453.28
2023-01-30T08:02:01.179Z,97443.25
2023-01-30T08:04:27.844Z,97436.06
2023-01-30T08:06:54.611Z,97443.25
2023-01-30T08:09:21.213Z,97448.84
2023-01-30T08:11:47.849Z,97441.25
2023-01-30T08:14:14.495Z,97439.22
2023-01-30T08:16:41.213Z,97434.00
2023-01-30T08:19:07.858Z,97438.06
2023-01-30T08:21:34.453Z,97430.22
2023-01-30T08:24:01.476Z,97421.13
2023-01-30T08:26:28.297Z,97423.13
2023-01-30T08:28:54.926Z,97420.28
2023-01-30T08:31:21.556Z,97408.97
2023-01-30T08:33:48.182Z,97408.69
2023-01-30T08:36:14.803Z,97404.56
2023-01-30T08:38:41.442Z,97422.06
2023-01-30T08:41:08.094Z,97416.47
2023-01-30T08:43:34.757Z,97413.09
2023-01-30T08:46:01.392Z,97409.53
2023-01-30T08:48:29.879Z,97400.25
2023-01-30T08:50:58.640Z,97393.81
2023-01-30T08:53:25.287Z,97385.97
2023-01-30T08:55:51.965Z,97385.09
2023-01-30T08:58:18.631Z,97384.91
2023-01-30T09:00:46.152Z,97389.44
2023-01-30T09:03:14.319Z,97373.69
2023-01-30T09:05:40.974Z,97369.59
2023-01-30T09:08:07.625Z,97372.97
2023-01-30T09:10:34.359Z,97352.69
2023-01-30T09:13:00.948Z,97351.28
2023-01-30T09:15:27.575Z,97340.88
2023-01-30T09:17:54.218Z,97347.91
2023-01-30T09:20:21.117Z,97348.75
2023-01-30T09:22:47.751Z,97342.09
2023-01-30T09:25:14.413Z,97346.84
2023-01-30T09:27:41.100Z,97341.88
2023-01-30T09:30:07.686Z,97332.50
2023-01-30T09:32:34.320Z,97319.91
2023-01-30T09:35:00.952Z,97333.44
2023-01-30T09:37:27.612Z,97322.66
2023-01-30T09:39:54.230Z,97321.31
2023-01-30T09:42:20.889Z,97330.69
2023-01-30T09:44:47.489Z,97316.44
2023-01-30T09:47:14.056Z,97313.44
2023-01-30T09:49:40.842Z,97308.91
2023-01-30T09:52:07.505Z,97304.91
2023-01-30T09:54:34.154Z,97297.13
2023-01-30T09:57:00.804Z,97299.50
2023-01-30T09:59:27.452Z,97285.94
2023-01-30T10:01:54.083Z,97275.84
2023-01-30T10:04:20.680Z,97284.81
2023-01-30T10:06:47.348Z,97279.25
2023-01-30T10:09:13.927Z,97280.38
2023-01-30T10:11:40.543Z,97281.25
2023-01-30T10:14:07.118Z,97276.47
2023-01-30T10:16:33.756Z,97267.19
2023-01-30T10:19:00.369Z,97262.13
2023-01-30T10:21:26.980Z,97265.22
2023-01-30T10:23:53.609Z,97267.69
2023-01-30T10:26:20.324Z,97249.97
2023-01-30T10:28:55.403Z,97257.94
2023-01-30T10:31:25.434Z,97255.50
2023-01-30T10:33:52.089Z,97245.63
2023-01-30T10:36:18.689Z,97246.41
2023-01-30T10:38:45.286Z,97236.63
2023-01-30T10:41:11.866Z,97251.91
2023-01-30T10:43:38.493Z,97247.75
2023-01-30T10:46:05.093Z,97254.78
2023-01-30T10:48:43.871Z,97228.84
2023-01-30T10:51:12.429Z,97230.47
2023-01-30T10:53:39.025Z,97216.13
2023-01-30T10:56:05.619Z,97216.78
2023-01-30T10:58:32.379Z,97209.56
2023-01-30T11:00:59.020Z,97204.22
2023-01-30T11:03:25.620Z,97203.53
2023-01-30T11:05:52.195Z,97191.56
2023-01-30T11:08:18.837Z,97192.63
2023-01-30T11:10:45.469Z,97180.16
2023-01-30T11:13:12.136Z,97177.25
2023-01-30T11:15:38.798Z,97174.47
2023-01-30T11:18:33.488Z,97148.81
2023-01-30T11:20:51.987Z,97159.84
2023-01-30T11:23:18.579Z,97152.94
2023-01-30T11:25:45.196Z,97147.75
2023-01-30T11:28:11.757Z,97152.47
2023-01-30T11:30:38.434Z,97143.88
2023-01-30T11:33:05.018Z,97138.41
2023-01-30T11:35:31.609Z,97124.47
2023-01-30T11:37:58.210Z,97124.72
2023-01-30T11:40:24.836Z,97123.28
2023-01-30T11:42:51.557Z,97127.88
2023-01-30T11:45:18.649Z,97130.22
2023-01-30T11:47:50.742Z,97114.16
2023-01-30T11:50:25.818Z,97116.38
2023-01-30T11:52:55.352Z,97095.63
2023-01-30T11:55:21.964Z,97101.13
2023-01-30T11:57:48.556Z,97089.03
2023-01-30T12:00:15.225Z,97088.56
2023-01-30T12:02:41.850Z,97096.41
2023-01-30T12:05:08.566Z,97090.41
2023-01-30T12:07:35.279Z,97086.16
2023-01-30T12:10:01.952Z,97091.09
2023-01-30T12:12:28.625Z,97075.91
2023-01-30T12:14:55.282Z,97078.63
2023-01-30T12:17:21.896Z,97068.59
2023-01-30T12:19:48.586Z,97057.75
2023-01-30T12:22:15.195Z,97064.41
2023-01-30T12:24:41.820Z,97057.94
2023-01-30T12:27:08.593Z,97055.88
2023-01-30T12:29:35.383Z,97051.44
2023-01-30T12:32:01.974Z,97054.34
2023-01-30T12:34:28.549Z,97039.38
2023-01-30T12:36:55.197Z,97043.06
2023-01-30T12:39:21.778Z,97049.63
2023-01-30T12:41:48.370Z,97049.19
2023-01-30T12:44:14.952Z,97044.22
2023-01-30T12:46:41.549Z,97034.47
2023-01-30T12:49:11.331Z,97027.13
2023-01-30T12:51:38.377Z,97029.63
2023-01-30T12:54:05.042Z,97014.53
2023-01-30T12:56:31.662Z,97013.94
2023-01-30T12:58:58.370Z,97017.66
2023-01-30T13:01:25.133Z,97010.47
2023-01-30T13:03:51.907Z,97008.63
2023-01-30T13:06:18.565Z,97001.03
2023-01-30T13:08:45.239Z,96999.50
2023-01-30T13:11:11.987Z,96998.31
2023-01-30T13:13:38.602Z,96996.94
2023-01-30T13:16:05.355Z,96992.22
2023-01-30T13:18:32.106Z,96990.25
2023-01-30T13:21:00.427Z,96988.44
2023-01-30T13:23:27.249Z,96979.31
2023-01-30T13:25:53.851Z,96982.38
2023-01-30T13:28:20.560Z,96972.28
2023-01-30T13:30:47.217Z,96976.41
2023-01-30T13:33:13.889Z,96975.75
2023-01-30T13:35:40.600Z,96979.41
2023-01-30T13:38:07.319Z,96967.13
2023-01-30T13:40:33.997Z,96967.88
2023-01-30T13:43:00.686Z,96966.56
2023-01-30T13:45:27.291Z,96977.69
2023-01-30T13:47:53.930Z,96969.28
2023-01-30T13:50:20.933Z,96962.59
2023-01-30T13:52:47.696Z,96959.06
2023-01-30T13:55:14.383Z,96964.63
2023-01-30T13:57:41.059Z,96964.19
2023-01-30T14:00:07.693Z,96965.69
2023-01-30T14:02:34.325Z,96951.69
2023-01-30T14:05:00.974Z,96952.28
2023-01-30T14:07:27.635Z,96955.38
2023-01-30T14:09:54.279Z,96963.00
2023-01-30T14:12:20.928Z,96952.47
2023-01-30T14:14:47.604Z,96944.94
2023-01-30T14:17:14.281Z,96946.81
2023-01-30T14:19:40.962Z,96934.94
2023-01-30T14:22:07.632Z,96933.44
2023-01-30T14:24:34.247Z,96934.97
2023-01-30T14:27:00.948Z,96944.56
2023-01-30T14:29:27.619Z,96936.78
2023-01-30T14:31:54.476Z,96946.19
2023-01-30T14:34:21.274Z,96947.72
2023-01-30T14:36:48.980Z,96946.09
2023-01-30T14:39:15.669Z,96954.56
2023-01-30T14:41:42.287Z,96961.13
2023-01-30T14:44:08.924Z,96961.47
2023-01-30T14:46:35.598Z,96948.72
2023-01-30T14:49:02.336Z,96958.50
2023-01-30T14:51:29.028Z,96968.81
2023-01-30T14:53:55.703Z,96949.59
2023-01-30T14:56:22.398Z,96934.22
2023-01-30T14:58:49.054Z,96942.22
2023-01-30T15:01:15.772Z,96959.28
2023-01-30T15:03:42.467Z,96962.44
2023-01-30T15:06:09.118Z,96969.88
2023-01-30T15:08:35.801Z,96969.09
2023-01-30T15:11:02.474Z,96973.03
2023-01-30T15:13:29.153Z,96950.78
2023-01-30T15:15:55.848Z,96962.84
2023-01-30T15:18:22.544Z,96965.03
2023-01-30T15:20:49.207Z,96960.75
2023-01-30T15:23:15.882Z,96951.66
2023-01-30T15:25:42.724Z,96942.38
2023-01-30T15:28:09.370Z,96940.19
2023-01-30T15:30:36.100Z,96966.03
2023-01-30T15:33:02.756Z,96945.63
2023-01-30T15:35:29.422Z,96959.09
2023-01-30T15:37:56.058Z,96945.03
2023-01-30T15:40:22.993Z,96952.22
2023-01-30T15:42:49.822Z,96959.63
2023-01-30T15:45:16.487Z,96966.75
2023-01-30T15:47:43.152Z,96956.38
2023-01-30T15:50:09.837Z,96976.28
2023-01-30T15:52:36.484Z,96985.06
2023-01-30T15:55:03.151Z,96985.44
2023-01-30T15:57:29.858Z,96970.88
2023-01-30T15:59:56.564Z,96987.69
2023-01-30T16:02:23.283Z,96996.78
2023-01-30T16:04:49.890Z,97015.38
2023-01-30T16:07:16.646Z,97003.50
2023-01-30T16:09:49.634Z,97010.94
2023-01-30T16:12:21.876Z,97035.53
2023-01-30T16:14:48.575Z,97039.56
2023-01-30T16:17:15.235Z,97052.47
2023-01-30T16:19:41.869Z,97048.63
2023-01-30T16:22:08.544Z,97065.50
2023-01-30T16:24:35.173Z,97074.47
2023-01-30T16:27:01.837Z,97076.31
2023-01-30T16:29:28.441Z,97081.81
2023-01-30T16:31:55.208Z,97068.47
2023-01-30T16:34:21.879Z,97083.78
2023-01-30T16:36:48.514Z,97082.81
2023-01-30T16:39:15.230Z,97068.44
2023-01-30T16:41:41.873Z,97066.91
2023-01-30T16:44:08.570Z,97080.75
2023-01-30T16:46:35.235Z,97075.28
2023-01-30T16:49:01.904Z,97072.81
2023-01-30T16:51:28.580Z,97086.69
2023-01-30T16:53:55.272Z,97084.69
2023-01-30T16:56:21.907Z,97097.84
2023-01-30T16:58:48.601Z,97097.59
2023-01-30T17:01:15.386Z,97093.63
2023-01-30T17:03:42.109Z,97094.09
2023-01-30T17:06:08.812Z,97104.19
2023-01-30T17:08:35.485Z,97088.50
2023-01-30T17:11:02.089Z,97085.00
2023-01-30T17:13:28.733Z,97105.03
2023-01-30T17:15:55.432Z,97086.13
2023-01-30T17:18:22.098Z,97071.84
2023-01-30T17:20:48.722Z,97089.97
2023-01-30T17:23:15.518Z,97080.81
2023-01-30T17:25:42.212Z,97090.47
2023-01-30T17:28:08.893Z,97084.31
2023-01-30T17:30:35.493Z,97086.13
2023-01-30T17:33:02.253Z,97090.88
2023-01-30T17:35:28.921Z,97090.75
2023-01-30T17:38:04.798Z,97090.81
2023-01-30T17:40:32.135Z,97085.13
2023-01-30T17:42:58.756Z,97083.03
2023-01-30T17:45:25.403Z,97077.28
2023-01-30T17:47:52.093Z,97083.91
2023-01-30T17:50:19.127Z,97071.53
2023-01-30T17:52:45.919Z,97089.91
2023-01-30T17:55:12.623Z,97125.91
2023-01-30T17:57:39.294Z,97116.13
2023-01-30T18:00:05.981Z,97139.31
2023-01-30T18:02:32.811Z,97140.16
2023-01-30T18:04:59.653Z,97172.66
2023-01-30T18:07:26.329Z,97188.44
2023-01-30T18:09:52.941Z,97202.22
2023-01-30T18:12:19.604Z,97197.44
2023-01-30T18:14:46.198Z,97195.31
2023-01-30T18:17:12.895Z,97189.47
2023-01-30T18:19:39.516Z,97200.53
2023-01-30T18:22:06.200Z,97215.69
2023-01-30T18:24:32.854Z,97216.94
2023-01-30T18:27:01.747Z,97216.06
2023-01-30T18:29:28.589Z,97214.25
2023-01-30T18:31:55.269Z,97229.47
2023-01-30T18:34:22.089Z,97235.28
2023-01-30T18:36:48.722Z,97241.53
2023-01-30T18:39:15.402Z,97247.91
2023-01-30T18:41:42.086Z,97249.16
2023-01-30T18:44:08.731Z,97262.56
2023-01-30T18:46:35.351Z,97258.25
2023-01-30T18:49:01.973Z,97264.09
2023-01-30T18:51:28.646Z,97264.00
2023-01-30T18:53:55.378Z,97267.38
2023-01-30T18:56:22.111Z,97281.03
2023-01-30T18:58:48.748Z,97278.97
2023-01-30T19:01:15.464Z,97285.31
2023-01-30T19:03:42.140Z,97287.28
2023-01-30T19:06:10.629Z,97277.19
2023-01-30T19:08:38.113Z,97278.22
2023-01-30T19:11:04.709Z,97283.50
2023-01-30T19:13:31.395Z,97290.03
2023-01-30T19:15:58.474Z,97283.69
2023-01-30T19:18:25.179Z,97291.06
2023-01-30T19:20:54.157Z,97303.78
2023-01-30T19:23:21.198Z,97306.31
2023-01-30T19:25:47.796Z,97310.63
2023-01-30T19:28:14.502Z,97313.03
2023-01-30T19:30:41.239Z,97284.81
2023-01-30T19:33:07.962Z,97282.56
2023-01-30T19:35:34.720Z,97280.63
2023-01-30T19:38:01.440Z,97288.00
2023-01-30T19:40:28.122Z,97294.13
2023-01-30T19:42:59.629Z,97297.38
2023-01-30T19:45:32.331Z,97289.22
2023-01-30T19:47:58.969Z,97289.91
2023-01-30T19:50:25.698Z,97284.66
2023-01-30T19:52:52.457Z,97284.50
2023-01-30T19:55:19.714Z,97282.06
2023-01-30T19:57:46.359Z,97305.34
2023-01-30T20:00:13.101Z,97291.19
2023-01-30T20:02:39.771Z,97289.41
2023-01-30T20:05:06.470Z,97295.44
2023-01-30T20:07:33.150Z,97297.22
2023-01-30T20:09:59.800Z,97308.44
2023-01-30T20:12:26.451Z,97306.97
2023-01-30T20:14:53.157Z,97309.94
2023-01-30T20:17:19.781Z,97304.72
2023-01-30T20:19:46.463Z,97313.84
2023-01-30T20:22:13.163Z,97319.91
2023-01-30T20:24:39.772Z,97315.78
2023-01-30T20:27:06.425Z,97329.66
2023-01-30T20:29:33.100Z,97328.03
2023-01-30T20:31:59.796Z,97330.25
2023-01-30T20:34:26.486Z,97359.81
2023-01-30T20:36:53.107Z,97353.25
2023-01-30T20:39:19.759Z,97344.44
2023-01-30T20:41:46.428Z,97349.84
2023-01-30T20:44:13.060Z,97359.81
2023-01-30T20:46:39.859Z,97350.84
2023-01-30T20:49:06.526Z,97332.00
2023-01-30T20:51:33.207Z,97340.16
2023-01-30T20:53:59.838Z,97347.03
2023-01-30T20:56:26.516Z,97332.66
2023-01-30T20:58:53.161Z,97315.03
2023-01-30T21:01:19.916Z,97319.09
2023-01-30T21:03:46.533Z,97323.81
2023-01-30T21:06:13.222Z,97309.16
2023-01-30T21:08:39.841Z,97305.06
2023-01-30T21:11:06.499Z,97319.56
2023-01-30T21:13:33.203Z,97307.84
2023-01-30T21:16:00.375Z,97321.34
2023-01-30T21:18:27.127Z,97304.56
2023-01-30T21:20:53.809Z,97320.22
2023-01-30T21:23:20.437Z,97318.25
2023-01-30T21:25:47.071Z,97316.94
2023-01-30T21:28:13.696Z,97312.56
2023-01-30T21:30:40.494Z,97314.34
2023-01-30T21:33:07.238Z,97329.00
2023-01-30T21:35:33.949Z,97330.94
2023-01-30T21:38:00.556Z,97315.63
2023-01-30T21:40:27.242Z,97323.13
2023-01-30T21:42:53.902Z,97331.66
2023-01-30T21:45:21.131Z,97344.22
2023-01-30T21:47:48.156Z,97352.56
2023-01-30T21:50:14.759Z,97336.53
2023-01-30T21:52:41.386Z,97346.69
2023-01-30T21:55:08.012Z,97341.94
2023-01-30T21:57:34.647Z,97348.94
2023-01-30T22:00:01.288Z,97338.66
2023-01-30T22:02:27.894Z,97349.94
2023-01-30T22:04:54.885Z,97362.69
2023-01-30T22:07:21.553Z,97373.63
2023-01-30T22:09:48.191Z,97367.25
2023-01-30T22:12:14.852Z,97364.19
2023-01-30T22:14:41.502Z,97359.91
2023-01-30T22:17:08.168Z,97370.53
2023-01-30T22:19:34.936Z,97386.50
2023-01-30T22:22:01.653Z,97385.53
2023-01-30T22:24:28.334Z,97388.97
2023-01-30T22:26:54.995Z,97371.97
2023-01-30T22:29:21.686Z,97378.03
2023-01-30T22:31:48.363Z,97375.19
2023-01-30T22:34:15.012Z,97369.91
2023-01-30T22:36:41.680Z,97376.94
2023-01-30T22:39:08.364Z,97369.31
2023-01-30T22:41:35.015Z,97379.09
2023-01-30T22:44:01.677Z,97380.13
2023-01-30T22:46:28.297Z,97385.25
2023-01-30T22:48:54.952Z,97394.59
2023-01-30T22:51:21.612Z,97393.34
2023-01-30T22:53:48.800Z,97389.97
2023-01-30T22:56:15.498Z,97391.00
2023-01-30T22:58:42.167Z,97382.94
2023-01-30T23:01:08.929Z,97377.03
2023-01-30T23:03:35.897Z,97376.88
2023-01-30T23:06:02.609Z,97359.69
2023-01-30T23:08:29.251Z,97360.81
2023-01-30T23:10:55.876Z,97372.31
2023-01-30T23:13:22.559Z,97364.16
2023-01-30T23:15:49.192Z,97350.88
2023-01-30T23:18:15.863Z,97351.75
2023-01-30T23:20:42.537Z,97363.91
2023-01-30T23:23:09.217Z,97366.19
2023-01-30T23:25:35.821Z,97363.56
2023-01-30T23:28:02.468Z,97367.69
2023-01-30T23:30:29.099Z,97360.59
2023-01-30T23:32:55.739Z,97369.38
2023-01-30T23:35:22.417Z,97366.41
2023-01-30T23:37:49.082Z,97358.81
2023-01-30T23:40:15.986Z,97353.69
2023-01-30T23:42:42.664Z,97353.44
2023-01-30T23:45:09.324Z,97359.66
2023-01-30T23:47:36.327Z,97362.81
2023-01-30T23:50:03.571Z,97362.31
2023-01-30T23:52:30.193Z,97363.81
2023-01-30T23:54:56.823Z,97366.03
2023-01-30T23:57:23.451Z,97372.13
2023-01-30T23:59:50.091Z,97377.59
